sensor_id;sensor_type;location;lat;lon;timestamp;temperature;humidity
44305;DHT22;30019;50.576;8.568;2023-02-05T00:00:01;0.50;99.90
44305;DHT22;30019;50.576;8.568;2023-02-05T00:02:27;0.50;99.90
44305;DHT22;30019;50.576;8.568;2023-02-05T00:04:52;0.50;99.90
44305;DHT22;30019;50.576;8.568;2023-02-05T00:07:18;0.40;99.90
44305;DHT22;30019;50.576;8.568;2023-02-05T00:09:44;0.30;99.90
44305;DHT22;30019;50.576;8.568;2023-02-05T00:12:09;0.30;99.90
44305;DHT22;30019;50.576;8.568;2023-02-05T00:14:35;0.30;99.90
44305;DHT22;30019;50.576;8.568;2023-02-05T00:17:00;0.30;99.90
44305;DHT22;30019;50.576;8.568;2023-02-05T00:19:26;0.30;99.90
44305;DHT22;30019;50.576;8.568;2023-02-05T00:21:51;0.30;99.90
44305;DHT22;30019;50.576;8.568;2023-02-05T00:24:17;0.30;99.90
44305;DHT22;30019;50.576;8.568;2023-02-05T00:26:43;0.30;99.90
44305;DHT22;30019;50.576;8.568;2023-02-05T00:29:08;0.30;99.90
44305;DHT22;30019;50.576;8.568;2023-02-05T00:31:34;0.30;99.90
44305;DHT22;30019;50.576;8.568;2023-02-05T00:33:59;0.30;99.90
44305;DHT22;30019;50.576;8.568;2023-02-05T00:36:25;0.20;99.90
44305;DHT22;30019;50.576;8.568;2023-02-05T00:38:51;0.20;99.90
44305;DHT22;30019;50.576;8.568;2023-02-05T00:41:17;0.20;99.90
44305;DHT22;30019;50.576;8.568;2023-02-05T00:43:43;0.20;99.90
44305;DHT22;30019;50.576;8.568;2023-02-05T00:46:10;0.20;99.90
44305;DHT22;30019;50.576;8.568;2023-02-05T00:48:36;0.10;99.90
44305;DHT22;30019;50.576;8.568;2023-02-05T00:51:02;0.10;99.90
44305;DHT22;30019;50.576;8.568;2023-02-05T00:53:28;0.20;99.90
44305;DHT22;30019;50.576;8.568;2023-02-05T00:55:54;0.30;99.90
44305;DHT22;30019;50.576;8.568;2023-02-05T00:58:19;0.30;99.90
44305;DHT22;30019;50.576;8.568;2023-02-05T01:00:45;0.30;99.90
44305;DHT22;30019;50.576;8.568;2023-02-05T01:03:12;0.40;99.90
44305;DHT22;30019;50.576;8.568;2023-02-05T01:05:38;0.60;99.90
44305;DHT22;30019;50.576;8.568;2023-02-05T01:08:05;0.70;99.90
44305;DHT22;30019;50.576;8.568;2023-02-05T01:10:31;0.70;99.90
44305;DHT22;30019;50.576;8.568;2023-02-05T01:12:57;0.80;99.90
44305;DHT22;30019;50.576;8.568;2023-02-05T01:15:22;0.90;99.90
44305;DHT22;30019;50.576;8.568;2023-02-05T01:17:48;1.00;99.90
44305;DHT22;30019;50.576;8.568;2023-02-05T01:20:14;1.00;99.90
44305;DHT22;30019;50.576;8.568;2023-02-05T01:22:40;1.00;99.90
44305;DHT22;30019;50.576;8.568;2023-02-05T01:25:07;1.00;99.90
44305;DHT22;30019;50.576;8.568;2023-02-05T01:27:33;1.10;99.90
44305;DHT22;30019;50.576;8.568;2023-02-05T01:29:59;1.10;99.90
44305;DHT22;30019;50.576;8.568;2023-02-05T01:32:26;1.10;99.90
44305;DHT22;30019;50.576;8.568;2023-02-05T01:34:51;1.20;99.90
44305;DHT22;30019;50.576;8.568;2023-02-05T01:37:17;1.20;99.90
44305;DHT22;30019;50.576;8.568;2023-02-05T01:39:43;1.30;99.90
44305;DHT22;30019;50.576;8.568;2023-02-05T01:42:18;1.40;99.90
44305;DHT22;30019;50.576;8.568;2023-02-05T01:47:44;1.50;99.90
44305;DHT22;30019;50.576;8.568;2023-02-05T01:50:10;1.50;99.90
44305;DHT22;30019;50.576;8.568;2023-02-05T01:52:36;1.50;99.90
44305;DHT22;30019;50.576;8.568;2023-02-05T01:55:02;1.50;99.90
44305;DHT22;30019;50.576;8.568;2023-02-05T01:57:29;1.50;99.90
44305;DHT22;30019;50.576;8.568;2023-02-05T01:59:56;1.50;99.90
44305;DHT22;30019;50.576;8.568;2023-02-05T02:02:22;1.50;99.90
44305;DHT22;30019;50.576;8.568;2023-02-05T02:04:54;1.40;99.90
44305;DHT22;30019;50.576;8.568;2023-02-05T02:07:23;1.50;99.90
44305;DHT22;30019;50.576;8.568;2023-02-05T02:09:51;1.50;99.90
44305;DHT22;30019;50.576;8.568;2023-02-05T02:12:21;1.50;99.90
44305;DHT22;30019;50.576;8.568;2023-02-05T02:14:51;1.40;99.90
44305;DHT22;30019;50.576;8.568;2023-02-05T02:17:20;1.50;99.90
44305;DHT22;30019;50.576;8.568;2023-02-05T02:19:59;1.50;99.90
44305;DHT22;30019;50.576;8.568;2023-02-05T02:22:51;1.50;99.90
44305;DHT22;30019;50.576;8.568;2023-02-05T02:28:44;1.60;99.90
44305;DHT22;30019;50.576;8.568;2023-02-05T02:31:24;1.60;99.90
44305;DHT22;30019;50.576;8.568;2023-02-05T02:37:00;1.70;99.90
44305;DHT22;30019;50.576;8.568;2023-02-05T02:40:17;1.70;99.90
44305;DHT22;30019;50.576;8.568;2023-02-05T02:43:05;1.60;99.90
44305;DHT22;30019;50.576;8.568;2023-02-05T02:45:34;1.50;99.90
44305;DHT22;30019;50.576;8.568;2023-02-05T02:48:02;1.50;99.90
44305;DHT22;30019;50.576;8.568;2023-02-05T02:50:32;1.50;99.90
44305;DHT22;30019;50.576;8.568;2023-02-05T02:53:13;1.60;99.90
44305;DHT22;30019;50.576;8.568;2023-02-05T02:55:40;1.60;99.90
44305;DHT22;30019;50.576;8.568;2023-02-05T02:58:13;1.60;99.90
44305;DHT22;30019;50.576;8.568;2023-02-05T03:00:42;1.60;99.90
44305;DHT22;30019;50.576;8.568;2023-02-05T03:03:10;1.60;99.90
44305;DHT22;30019;50.576;8.568;2023-02-05T03:05:39;1.60;99.90
44305;DHT22;30019;50.576;8.568;2023-02-05T03:08:21;1.60;99.90
44305;DHT22;30019;50.576;8.568;2023-02-05T03:11:00;1.70;99.90
44305;DHT22;30019;50.576;8.568;2023-02-05T03:13:26;1.70;99.90
44305;DHT22;30019;50.576;8.568;2023-02-05T03:15:52;1.70;99.90
44305;DHT22;30019;50.576;8.568;2023-02-05T03:18:18;1.80;99.90
44305;DHT22;30019;50.576;8.568;2023-02-05T03:20:55;1.80;99.90
44305;DHT22;30019;50.576;8.568;2023-02-05T03:23:22;1.80;99.90
44305;DHT22;30019;50.576;8.568;2023-02-05T03:25:47;1.90;99.90
44305;DHT22;30019;50.576;8.568;2023-02-05T03:28:13;1.80;99.90
44305;DHT22;30019;50.576;8.568;2023-02-05T03:36:41;1.90;99.90
44305;DHT22;30019;50.576;8.568;2023-02-05T03:42:30;1.90;99.90
44305;DHT22;30019;50.576;8.568;2023-02-05T03:45:12;1.90;99.90
44305;DHT22;30019;50.576;8.568;2023-02-05T03:50:31;1.80;99.90
44305;DHT22;30019;50.576;8.568;2023-02-05T03:55:50;1.80;99.90
44305;DHT22;30019;50.576;8.568;2023-02-05T03:58:25;1.80;99.90
44305;DHT22;30019;50.576;8.568;2023-02-05T04:00:52;1.90;99.90
44305;DHT22;30019;50.576;8.568;2023-02-05T04:03:17;1.90;99.90
44305;DHT22;30019;50.576;8.568;2023-02-05T04:05:43;1.90;99.90
44305;DHT22;30019;50.576;8.568;2023-02-05T04:08:08;2.00;99.90
44305;DHT22;30019;50.576;8.568;2023-02-05T04:10:34;2.00;99.90
44305;DHT22;30019;50.576;8.568;2023-02-05T04:12:59;2.10;99.90
44305;DHT22;30019;50.576;8.568;2023-02-05T04:15:25;2.10;99.90
44305;DHT22;30019;50.576;8.568;2023-02-05T04:17:51;2.10;99.90
44305;DHT22;30019;50.576;8.568;2023-02-05T04:20:16;2.10;99.90
44305;DHT22;30019;50.576;8.568;2023-02-05T04:22:42;2.10;99.90
44305;DHT22;30019;50.576;8.568;2023-02-05T04:25:08;2.10;99.90
44305;DHT22;30019;50.576;8.568;2023-02-05T04:27:33;2.20;99.90
44305;DHT22;30019;50.576;8.568;2023-02-05T04:29:59;2.20;99.90
44305;DHT22;30019;50.576;8.568;2023-02-05T04:32:24;2.20;99.90
44305;DHT22;30019;50.576;8.568;2023-02-05T04:34:50;2.20;99.90
44305;DHT22;30019;50.576;8.568;2023-02-05T04:37:15;2.10;99.90
44305;DHT22;30019;50.576;8.568;2023-02-05T04:39:41;2.00;99.90
44305;DHT22;30019;50.576;8.568;2023-02-05T04:42:06;2.00;99.90
44305;DHT22;30019;50.576;8.568;2023-02-05T04:44:32;2.10;99.90
44305;DHT22;30019;50.576;8.568;2023-02-05T04:46:57;2.20;99.90
44305;DHT22;30019;50.576;8.568;2023-02-05T04:49:24;2.30;99.90
44305;DHT22;30019;50.576;8.568;2023-02-05T04:51:49;2.30;99.90
44305;DHT22;30019;50.576;8.568;2023-02-05T04:54:15;2.30;99.90
44305;DHT22;30019;50.576;8.568;2023-02-05T04:56:40;2.30;99.90
44305;DHT22;30019;50.576;8.568;2023-02-05T04:59:06;2.20;99.90
44305;DHT22;30019;50.576;8.568;2023-02-05T05:01:31;2.20;99.90
44305;DHT22;30019;50.576;8.568;2023-02-05T05:03:57;2.10;99.90
44305;DHT22;30019;50.576;8.568;2023-02-05T05:06:23;2.00;99.90
44305;DHT22;30019;50.576;8.568;2023-02-05T05:08:48;1.90;99.90
44305;DHT22;30019;50.576;8.568;2023-02-05T05:11:16;1.90;99.90
44305;DHT22;30019;50.576;8.568;2023-02-05T05:13:42;1.90;99.90
44305;DHT22;30019;50.576;8.568;2023-02-05T05:16:08;1.80;99.90
44305;DHT22;30019;50.576;8.568;2023-02-05T05:18:35;1.80;99.90
44305;DHT22;30019;50.576;8.568;2023-02-05T05:21:02;1.70;99.90
44305;DHT22;30019;50.576;8.568;2023-02-05T05:23:28;1.70;99.90
44305;DHT22;30019;50.576;8.568;2023-02-05T05:25:54;1.70;99.90
44305;DHT22;30019;50.576;8.568;2023-02-05T05:28:19;1.70;99.90
44305;DHT22;30019;50.576;8.568;2023-02-05T05:30:45;1.70;99.90
44305;DHT22;30019;50.576;8.568;2023-02-05T05:33:11;1.70;99.90
44305;DHT22;30019;50.576;8.568;2023-02-05T05:35:37;1.70;99.90
44305;DHT22;30019;50.576;8.568;2023-02-05T05:38:03;1.70;99.90
44305;DHT22;30019;50.576;8.568;2023-02-05T05:40:29;1.70;99.90
44305;DHT22;30019;50.576;8.568;2023-02-05T05:43:19;1.70;99.90
44305;DHT22;30019;50.576;8.568;2023-02-05T05:46:04;1.70;99.90
44305;DHT22;30019;50.576;8.568;2023-02-05T05:48:30;1.80;99.90
44305;DHT22;30019;50.576;8.568;2023-02-05T05:50:56;1.80;99.90
44305;DHT22;30019;50.576;8.568;2023-02-05T05:53:22;1.80;99.90
44305;DHT22;30019;50.576;8.568;2023-02-05T05:55:48;1.80;99.90
44305;DHT22;30019;50.576;8.568;2023-02-05T05:58:14;1.90;99.90
44305;DHT22;30019;50.576;8.568;2023-02-05T06:00:40;2.00;99.90
44305;DHT22;30019;50.576;8.568;2023-02-05T06:03:08;2.00;99.90
44305;DHT22;30019;50.576;8.568;2023-02-05T06:05:34;2.10;99.90
44305;DHT22;30019;50.576;8.568;2023-02-05T06:07:59;2.10;99.90
44305;DHT22;30019;50.576;8.568;2023-02-05T06:10:25;2.20;99.90
44305;DHT22;30019;50.576;8.568;2023-02-05T06:12:51;2.20;99.90
44305;DHT22;30019;50.576;8.568;2023-02-05T06:15:20;2.10;99.90
44305;DHT22;30019;50.576;8.568;2023-02-05T06:17:46;2.10;99.90
44305;DHT22;30019;50.576;8.568;2023-02-05T06:20:12;2.20;99.90
44305;DHT22;30019;50.576;8.568;2023-02-05T06:22:38;2.20;99.90
44305;DHT22;30019;50.576;8.568;2023-02-05T06:25:04;2.20;99.90
44305;DHT22;30019;50.576;8.568;2023-02-05T06:27:30;2.20;99.90
44305;DHT22;30019;50.576;8.568;2023-02-05T06:29:56;2.30;99.90
44305;DHT22;30019;50.576;8.568;2023-02-05T06:32:21;2.20;99.90
44305;DHT22;30019;50.576;8.568;2023-02-05T06:34:47;2.20;99.90
44305;DHT22;30019;50.576;8.568;2023-02-05T06:37:13;2.20;99.90
44305;DHT22;30019;50.576;8.568;2023-02-05T06:39:38;2.20;99.90
44305;DHT22;30019;50.576;8.568;2023-02-05T06:42:04;2.10;99.90
44305;DHT22;30019;50.576;8.568;2023-02-05T06:44:30;2.00;99.90
44305;DHT22;30019;50.576;8.568;2023-02-05T06:46:56;2.00;99.90
44305;DHT22;30019;50.576;8.568;2023-02-05T06:49:21;2.00;99.90
44305;DHT22;30019;50.576;8.568;2023-02-05T06:51:47;2.00;99.90
44305;DHT22;30019;50.576;8.568;2023-02-05T06:54:13;2.00;99.90
44305;DHT22;30019;50.576;8.568;2023-02-05T06:56:39;2.00;99.90
44305;DHT22;30019;50.576;8.568;2023-02-05T06:59:04;2.10;99.90
44305;DHT22;30019;50.576;8.568;2023-02-05T07:01:30;2.00;99.90
44305;DHT22;30019;50.576;8.568;2023-02-05T07:03:55;2.00;99.90
44305;DHT22;30019;50.576;8.568;2023-02-05T07:06:22;2.10;99.90
44305;DHT22;30019;50.576;8.568;2023-02-05T07:08:51;2.10;99.90
44305;DHT22;30019;50.576;8.568;2023-02-05T07:11:37;2.10;99.90
44305;DHT22;30019;50.576;8.568;2023-02-05T07:14:11;2.20;99.90
44305;DHT22;30019;50.576;8.568;2023-02-05T07:16:37;2.10;99.90
44305;DHT22;30019;50.576;8.568;2023-02-05T07:19:02;2.00;99.90
44305;DHT22;30019;50.576;8.568;2023-02-05T07:21:28;2.00;99.90
44305;DHT22;30019;50.576;8.568;2023-02-05T07:23:53;2.20;99.90
44305;DHT22;30019;50.576;8.568;2023-02-05T07:26:19;2.20;99.90
44305;DHT22;30019;50.576;8.568;2023-02-05T07:28:45;2.20;99.90
44305;DHT22;30019;50.576;8.568;2023-02-05T07:31:13;2.20;99.90
44305;DHT22;30019;50.576;8.568;2023-02-05T07:33:42;2.20;99.90
44305;DHT22;30019;50.576;8.568;2023-02-05T07:36:09;2.10;99.90
44305;DHT22;30019;50.576;8.568;2023-02-05T07:38:36;2.20;99.90
44305;DHT22;30019;50.576;8.568;2023-02-05T07:41:07;2.10;99.90
44305;DHT22;30019;50.576;8.568;2023-02-05T07:43:33;2.30;99.90
44305;DHT22;30019;50.576;8.568;2023-02-05T07:46:02;2.40;99.90
44305;DHT22;30019;50.576;8.568;2023-02-05T07:48:28;2.30;99.90
44305;DHT22;30019;50.576;8.568;2023-02-05T07:50:54;2.20;99.90
44305;DHT22;30019;50.576;8.568;2023-02-05T07:53:19;2.20;99.90
44305;DHT22;30019;50.576;8.568;2023-02-05T07:55:46;2.20;99.90
44305;DHT22;30019;50.576;8.568;2023-02-05T07:58:12;2.20;99.90
44305;DHT22;30019;50.576;8.568;2023-02-05T08:00:38;2.30;99.90
44305;DHT22;30019;50.576;8.568;2023-02-05T08:03:03;2.30;99.90
44305;DHT22;30019;50.576;8.568;2023-02-05T08:05:29;2.40;99.90
44305;DHT22;30019;50.576;8.568;2023-02-05T08:07:55;2.50;99.90
44305;DHT22;30019;50.576;8.568;2023-02-05T08:10:20;2.50;99.90
44305;DHT22;30019;50.576;8.568;2023-02-05T08:12:46;2.30;99.90
44305;DHT22;30019;50.576;8.568;2023-02-05T08:15:12;2.30;99.90
44305;DHT22;30019;50.576;8.568;2023-02-05T08:17:38;2.20;99.90
44305;DHT22;30019;50.576;8.568;2023-02-05T08:20:07;2.20;99.90
44305;DHT22;30019;50.576;8.568;2023-02-05T08:22:35;2.10;99.90
44305;DHT22;30019;50.576;8.568;2023-02-05T08:25:01;2.10;99.90
44305;DHT22;30019;50.576;8.568;2023-02-05T08:27:27;2.10;99.90
44305;DHT22;30019;50.576;8.568;2023-02-05T08:29:53;2.10;99.90
44305;DHT22;30019;50.576;8.568;2023-02-05T08:32:18;2.10;99.90
44305;DHT22;30019;50.576;8.568;2023-02-05T08:34:44;2.10;99.90
44305;DHT22;30019;50.576;8.568;2023-02-05T08:37:09;2.10;99.90
44305;DHT22;30019;50.576;8.568;2023-02-05T08:39:35;2.20;99.90
44305;DHT22;30019;50.576;8.568;2023-02-05T08:42:02;2.30;99.90
44305;DHT22;30019;50.576;8.568;2023-02-05T08:44:28;2.40;99.90
44305;DHT22;30019;50.576;8.568;2023-02-05T08:46:54;2.30;99.90
44305;DHT22;30019;50.576;8.568;2023-02-05T08:49:20;2.30;99.90
44305;DHT22;30019;50.576;8.568;2023-02-05T08:51:46;2.20;99.90
44305;DHT22;30019;50.576;8.568;2023-02-05T08:54:13;2.20;99.90
44305;DHT22;30019;50.576;8.568;2023-02-05T08:56:40;2.20;99.90
44305;DHT22;30019;50.576;8.568;2023-02-05T08:59:06;2.10;99.90
44305;DHT22;30019;50.576;8.568;2023-02-05T09:01:34;2.20;99.90
44305;DHT22;30019;50.576;8.568;2023-02-05T09:04:02;2.20;99.90
44305;DHT22;30019;50.576;8.568;2023-02-05T09:06:35;2.10;99.90
44305;DHT22;30019;50.576;8.568;2023-02-05T09:09:15;2.20;99.90
44305;DHT22;30019;50.576;8.568;2023-02-05T09:11:47;2.20;99.90
44305;DHT22;30019;50.576;8.568;2023-02-05T09:14:14;2.20;99.90
44305;DHT22;30019;50.576;8.568;2023-02-05T09:16:40;2.20;99.90
44305;DHT22;30019;50.576;8.568;2023-02-05T09:19:06;2.20;99.90
44305;DHT22;30019;50.576;8.568;2023-02-05T09:21:32;2.40;99.90
44305;DHT22;30019;50.576;8.568;2023-02-05T09:24:15;2.50;99.90
44305;DHT22;30019;50.576;8.568;2023-02-05T09:26:41;2.70;99.90
44305;DHT22;30019;50.576;8.568;2023-02-05T09:29:06;2.70;99.90
44305;DHT22;30019;50.576;8.568;2023-02-05T09:31:32;2.80;99.90
44305;DHT22;30019;50.576;8.568;2023-02-05T09:33:58;2.90;99.90
44305;DHT22;30019;50.576;8.568;2023-02-05T09:36:26;2.90;99.90
44305;DHT22;30019;50.576;8.568;2023-02-05T09:38:51;2.90;99.90
44305;DHT22;30019;50.576;8.568;2023-02-05T09:47:06;2.90;99.90
44305;DHT22;30019;50.576;8.568;2023-02-05T09:49:52;3.00;99.90
44305;DHT22;30019;50.576;8.568;2023-02-05T09:52:26;3.10;99.90
44305;DHT22;30019;50.576;8.568;2023-02-05T09:55:05;3.00;99.90
44305;DHT22;30019;50.576;8.568;2023-02-05T09:57:37;3.00;99.90
44305;DHT22;30019;50.576;8.568;2023-02-05T10:03:06;3.20;99.90
44305;DHT22;30019;50.576;8.568;2023-02-05T10:05:39;3.10;99.90
44305;DHT22;30019;50.576;8.568;2023-02-05T10:10:46;3.20;99.90
44305;DHT22;30019;50.576;8.568;2023-02-05T10:18:42;3.10;99.90
44305;DHT22;30019;50.576;8.568;2023-02-05T10:27:22;3.20;99.90
44305;DHT22;30019;50.576;8.568;2023-02-05T10:29:56;3.20;99.90
44305;DHT22;30019;50.576;8.568;2023-02-05T10:38:02;3.30;99.90
44305;DHT22;30019;50.576;8.568;2023-02-05T10:40:38;3.40;99.90
44305;DHT22;30019;50.576;8.568;2023-02-05T10:43:25;3.40;99.90
44305;DHT22;30019;50.576;8.568;2023-02-05T10:45:54;3.30;99.90
44305;DHT22;30019;50.576;8.568;2023-02-05T10:51:09;3.40;99.90
44305;DHT22;30019;50.576;8.568;2023-02-05T10:53:38;3.50;99.90
44305;DHT22;30019;50.576;8.568;2023-02-05T10:56:04;3.60;99.90
44305;DHT22;30019;50.576;8.568;2023-02-05T10:58:51;3.60;99.90
44305;DHT22;30019;50.576;8.568;2023-02-05T11:01:23;3.60;99.90
44305;DHT22;30019;50.576;8.568;2023-02-05T11:04:04;3.60;99.90
44305;DHT22;30019;50.576;8.568;2023-02-05T11:06:39;3.60;99.90
44305;DHT22;30019;50.576;8.568;2023-02-05T11:11:57;3.50;99.90
44305;DHT22;30019;50.576;8.568;2023-02-05T11:14:35;3.50;99.90
44305;DHT22;30019;50.576;8.568;2023-02-05T11:17:50;3.50;99.90
44305;DHT22;30019;50.576;8.568;2023-02-05T11:19:56;3.50;99.90
44305;DHT22;30019;50.576;8.568;2023-02-05T11:22:34;3.60;99.90
44305;DHT22;30019;50.576;8.568;2023-02-05T11:25:21;3.60;99.90
44305;DHT22;30019;50.576;8.568;2023-02-05T11:27:57;3.70;99.90
44305;DHT22;30019;50.576;8.568;2023-02-05T11:30:33;3.70;99.90
44305;DHT22;30019;50.576;8.568;2023-02-05T11:33:18;3.70;99.90
44305;DHT22;30019;50.576;8.568;2023-02-05T11:36:01;3.70;99.90
44305;DHT22;30019;50.576;8.568;2023-02-05T11:40:56;3.70;99.90
44305;DHT22;30019;50.576;8.568;2023-02-05T11:45:52;3.80;99.90
44305;DHT22;30019;50.576;8.568;2023-02-05T11:48:30;3.90;99.90
44305;DHT22;30019;50.576;8.568;2023-02-05T11:50:57;3.90;99.90
44305;DHT22;30019;50.576;8.568;2023-02-05T11:53:23;4.00;99.90
44305;DHT22;30019;50.576;8.568;2023-02-05T11:56:01;4.10;99.90
44305;DHT22;30019;50.576;8.568;2023-02-05T11:58:29;4.10;99.90
44305;DHT22;30019;50.576;8.568;2023-02-05T12:01:01;4.10;99.90
44305;DHT22;30019;50.576;8.568;2023-02-05T12:03:29;4.00;99.90
44305;DHT22;30019;50.576;8.568;2023-02-05T12:06:11;4.10;99.90
44305;DHT22;30019;50.576;8.568;2023-02-05T12:08:50;4.10;99.90
44305;DHT22;30019;50.576;8.568;2023-02-05T12:16:29;4.50;99.90
44305;DHT22;30019;50.576;8.568;2023-02-05T12:19:08;4.70;99.90
44305;DHT22;30019;50.576;8.568;2023-02-05T12:21:45;4.80;99.90
44305;DHT22;30019;50.576;8.568;2023-02-05T12:24:25;4.70;99.90
44305;DHT22;30019;50.576;8.568;2023-02-05T12:27:45;4.60;99.90
44305;DHT22;30019;50.576;8.568;2023-02-05T12:59:29;5.30;99.90
44305;DHT22;30019;50.576;8.568;2023-02-05T13:02:03;5.50;99.90
44305;DHT22;30019;50.576;8.568;2023-02-05T13:04:36;5.60;99.90
44305;DHT22;30019;50.576;8.568;2023-02-05T13:07:33;5.80;99.90
44305;DHT22;30019;50.576;8.568;2023-02-05T13:10:03;5.90;99.90
44305;DHT22;30019;50.576;8.568;2023-02-05T13:12:36;5.60;99.90
44305;DHT22;30019;50.576;8.568;2023-02-05T13:17:40;5.60;99.90
44305;DHT22;30019;50.576;8.568;2023-02-05T13:20:21;5.70;99.90
44305;DHT22;30019;50.576;8.568;2023-02-05T13:23:08;5.80;99.90
44305;DHT22;30019;50.576;8.568;2023-02-05T13:25:55;5.80;99.90
44305;DHT22;30019;50.576;8.568;2023-02-05T13:31:28;6.00;99.90
44305;DHT22;30019;50.576;8.568;2023-02-05T13:33:59;5.90;99.90
44305;DHT22;30019;50.576;8.568;2023-02-05T13:56:40;5.30;99.90
44305;DHT22;30019;50.576;8.568;2023-02-05T13:59:17;5.10;99.90
44305;DHT22;30019;50.576;8.568;2023-02-05T14:01:53;5.00;99.90
44305;DHT22;30019;50.576;8.568;2023-02-05T14:04:39;5.10;99.90
44305;DHT22;30019;50.576;8.568;2023-02-05T14:07:21;5.10;99.90
44305;DHT22;30019;50.576;8.568;2023-02-05T14:09:53;5.10;99.90
44305;DHT22;30019;50.576;8.568;2023-02-05T14:12:35;5.10;99.90
44305;DHT22;30019;50.576;8.568;2023-02-05T14:22:50;4.70;99.90
44305;DHT22;30019;50.576;8.568;2023-02-05T14:28:01;5.00;99.90
44305;DHT22;30019;50.576;8.568;2023-02-05T14:35:36;5.00;99.90
44305;DHT22;30019;50.576;8.568;2023-02-05T14:41:13;4.90;99.90
44305;DHT22;30019;50.576;8.568;2023-02-05T14:43:39;4.90;99.90
44305;DHT22;30019;50.576;8.568;2023-02-05T14:46:20;4.80;99.90
44305;DHT22;30019;50.576;8.568;2023-02-05T14:48:47;4.80;99.90
44305;DHT22;30019;50.576;8.568;2023-02-05T14:51:28;4.80;99.90
44305;DHT22;30019;50.576;8.568;2023-02-05T14:54:01;4.80;99.90
44305;DHT22;30019;50.576;8.568;2023-02-05T14:56:34;4.80;99.90
44305;DHT22;30019;50.576;8.568;2023-02-05T14:59:06;4.80;99.90
44305;DHT22;30019;50.576;8.568;2023-02-05T15:04:02;4.70;99.90
44305;DHT22;30019;50.576;8.568;2023-02-05T15:06:35;4.70;99.90
44305;DHT22;30019;50.576;8.568;2023-02-05T15:09:45;4.80;99.90
44305;DHT22;30019;50.576;8.568;2023-02-05T15:12:37;4.80;99.90
44305;DHT22;30019;50.576;8.568;2023-02-05T15:15:37;4.70;99.90
44305;DHT22;30019;50.576;8.568;2023-02-05T15:18:19;4.70;99.90
44305;DHT22;30019;50.576;8.568;2023-02-05T15:20:50;4.80;99.90
44305;DHT22;30019;50.576;8.568;2023-02-05T15:23:21;4.70;99.90
44305;DHT22;30019;50.576;8.568;2023-02-05T15:26:00;4.70;99.90
44305;DHT22;30019;50.576;8.568;2023-02-05T15:28:35;4.60;99.90
44305;DHT22;30019;50.576;8.568;2023-02-05T15:34:05;4.60;99.90
44305;DHT22;30019;50.576;8.568;2023-02-05T15:36:42;4.70;99.90
44305;DHT22;30019;50.576;8.568;2023-02-05T15:41:53;4.60;99.90
44305;DHT22;30019;50.576;8.568;2023-02-05T15:44:30;4.60;99.90
44305;DHT22;30019;50.576;8.568;2023-02-05T15:46:58;4.50;99.90
44305;DHT22;30019;50.576;8.568;2023-02-05T15:49:30;4.50;99.90
44305;DHT22;30019;50.576;8.568;2023-02-05T15:51:57;4.50;99.90
44305;DHT22;30019;50.576;8.568;2023-02-05T15:54:23;4.50;99.90
44305;DHT22;30019;50.576;8.568;2023-02-05T15:56:51;4.40;99.90
44305;DHT22;30019;50.576;8.568;2023-02-05T15:59:28;4.50;99.90
44305;DHT22;30019;50.576;8.568;2023-02-05T16:02:21;4.50;99.90
44305;DHT22;30019;50.576;8.568;2023-02-05T16:04:53;4.50;99.90
44305;DHT22;30019;50.576;8.568;2023-02-05T16:07:24;4.40;99.90
44305;DHT22;30019;50.576;8.568;2023-02-05T16:09:59;4.50;99.90
44305;DHT22;30019;50.576;8.568;2023-02-05T16:12:25;4.50;99.90
44305;DHT22;30019;50.576;8.568;2023-02-05T16:15:16;4.60;99.90
44305;DHT22;30019;50.576;8.568;2023-02-05T16:17:46;4.50;99.90
44305;DHT22;30019;50.576;8.568;2023-02-05T16:20:21;4.50;99.90
44305;DHT22;30019;50.576;8.568;2023-02-05T16:23:06;4.60;99.90
44305;DHT22;30019;50.576;8.568;2023-02-05T16:25:52;4.50;99.90
44305;DHT22;30019;50.576;8.568;2023-02-05T16:31:07;4.60;99.90
44305;DHT22;30019;50.576;8.568;2023-02-05T16:33:38;4.60;99.90
44305;DHT22;30019;50.576;8.568;2023-02-05T16:36:06;4.60;99.90
44305;DHT22;30019;50.576;8.568;2023-02-05T16:38:39;4.50;99.90
44305;DHT22;30019;50.576;8.568;2023-02-05T16:41:29;4.50;99.90
44305;DHT22;30019;50.576;8.568;2023-02-05T16:43:58;4.60;99.90
44305;DHT22;30019;50.576;8.568;2023-02-05T16:46:27;4.60;99.90
44305;DHT22;30019;50.576;8.568;2023-02-05T16:48:58;4.50;99.90
44305;DHT22;30019;50.576;8.568;2023-02-05T16:52:12;4.40;99.90
44305;DHT22;30019;50.576;8.568;2023-02-05T16:56:49;4.40;99.90
44305;DHT22;30019;50.576;8.568;2023-02-05T16:59:21;4.40;99.90
44305;DHT22;30019;50.576;8.568;2023-02-05T17:01:50;4.50;99.90
44305;DHT22;30019;50.576;8.568;2023-02-05T17:04:34;4.50;99.90
44305;DHT22;30019;50.576;8.568;2023-02-05T17:07:02;4.50;99.90
44305;DHT22;30019;50.576;8.568;2023-02-05T17:09:37;4.50;99.90
44305;DHT22;30019;50.576;8.568;2023-02-05T17:14:56;4.50;99.90
44305;DHT22;30019;50.576;8.568;2023-02-05T17:17:23;4.50;99.90
44305;DHT22;30019;50.576;8.568;2023-02-05T17:22:34;4.60;99.90
44305;DHT22;30019;50.576;8.568;2023-02-05T17:25:00;4.60;99.90
44305;DHT22;30019;50.576;8.568;2023-02-05T17:27:39;4.60;99.90
44305;DHT22;30019;50.576;8.568;2023-02-05T17:30:13;4.60;99.90
44305;DHT22;30019;50.576;8.568;2023-02-05T17:32:39;4.60;99.90
44305;DHT22;30019;50.576;8.568;2023-02-05T17:35:15;4.60;99.90
44305;DHT22;30019;50.576;8.568;2023-02-05T17:37:41;4.50;99.90
44305;DHT22;30019;50.576;8.568;2023-02-05T17:40:07;4.60;99.90
44305;DHT22;30019;50.576;8.568;2023-02-05T17:42:33;4.60;99.90
44305;DHT22;30019;50.576;8.568;2023-02-05T17:44:59;4.50;99.90
44305;DHT22;30019;50.576;8.568;2023-02-05T17:47:24;4.50;99.90
44305;DHT22;30019;50.576;8.568;2023-02-05T17:49:50;4.40;99.90
44305;DHT22;30019;50.576;8.568;2023-02-05T17:52:16;4.40;99.90
44305;DHT22;30019;50.576;8.568;2023-02-05T17:54:42;4.40;99.90
44305;DHT22;30019;50.576;8.568;2023-02-05T17:57:17;4.30;99.90
44305;DHT22;30019;50.576;8.568;2023-02-05T17:59:43;4.40;99.90
44305;DHT22;30019;50.576;8.568;2023-02-05T18:02:11;4.40;99.90
44305;DHT22;30019;50.576;8.568;2023-02-05T18:04:37;4.40;99.90
44305;DHT22;30019;50.576;8.568;2023-02-05T18:07:02;4.30;99.90
44305;DHT22;30019;50.576;8.568;2023-02-05T18:09:28;4.30;99.90
44305;DHT22;30019;50.576;8.568;2023-02-05T18:11:54;4.30;99.90
44305;DHT22;30019;50.576;8.568;2023-02-05T18:14:19;4.30;99.90
44305;DHT22;30019;50.576;8.568;2023-02-05T18:16:46;4.40;99.90
44305;DHT22;30019;50.576;8.568;2023-02-05T18:19:12;4.40;99.90
44305;DHT22;30019;50.576;8.568;2023-02-05T18:21:38;4.40;99.90
44305;DHT22;30019;50.576;8.568;2023-02-05T18:24:04;4.40;99.90
44305;DHT22;30019;50.576;8.568;2023-02-05T18:26:30;4.40;99.90
44305;DHT22;30019;50.576;8.568;2023-02-05T18:28:55;4.40;99.90
44305;DHT22;30019;50.576;8.568;2023-02-05T18:31:21;4.40;99.90
44305;DHT22;30019;50.576;8.568;2023-02-05T18:33:47;4.40;99.90
44305;DHT22;30019;50.576;8.568;2023-02-05T18:36:14;4.50;99.90
44305;DHT22;30019;50.576;8.568;2023-02-05T18:38:40;4.50;99.90
44305;DHT22;30019;50.576;8.568;2023-02-05T18:41:09;4.50;99.90
44305;DHT22;30019;50.576;8.568;2023-02-05T18:43:35;4.50;99.90